sensor_id;sensor_type;location;lat;lon;timestamp;temperature;humidity
46552;DHT22;32278;51.810;4.712;2023-03-01T00:01:55;1.90;99.90
46552;DHT22;32278;51.810;4.712;2023-03-01T00:04:21;1.80;99.90
46552;DHT22;32278;51.810;4.712;2023-03-01T00:06:46;1.70;99.90
46552;DHT22;32278;51.810;4.712;2023-03-01T00:09:14;1.60;99.90
46552;DHT22;32278;51.810;4.712;2023-03-01T00:11:40;1.60;99.90
46552;DHT22;32278;51.810;4.712;2023-03-01T00:14:06;1.70;99.90
46552;DHT22;32278;51.810;4.712;2023-03-01T00:16:39;1.70;99.90
46552;DHT22;32278;51.810;4.712;2023-03-01T00:19:05;1.70;99.90
46552;DHT22;32278;51.810;4.712;2023-03-01T00:21:32;1.70;99.90
46552;DHT22;32278;51.810;4.712;2023-03-01T00:23:58;1.70;99.90
46552;DHT22;32278;51.810;4.712;2023-03-01T00:26:25;1.60;99.90
46552;DHT22;32278;51.810;4.712;2023-03-01T00:28:51;1.60;99.90
46552;DHT22;32278;51.810;4.712;2023-03-01T00:31:22;1.60;99.90
46552;DHT22;32278;51.810;4.712;2023-03-01T00:33:48;1.60;99.90
46552;DHT22;32278;51.810;4.712;2023-03-01T00:36:15;1.60;99.90
46552;DHT22;32278;51.810;4.712;2023-03-01T00:38:43;1.60;99.90
46552;DHT22;32278;51.810;4.712;2023-03-01T00:41:11;1.70;99.90
46552;DHT22;32278;51.810;4.712;2023-03-01T00:43:37;1.60;99.90
46552;DHT22;32278;51.810;4.712;2023-03-01T00:46:08;1.60;99.90
46552;DHT22;32278;51.810;4.712;2023-03-01T00:48:34;1.60;99.90
46552;DHT22;32278;51.810;4.712;2023-03-01T00:51:16;1.50;99.90
46552;DHT22;32278;51.810;4.712;2023-03-01T00:53:42;1.50;99.90
46552;DHT22;32278;51.810;4.712;2023-03-01T00:56:13;1.50;99.90
46552;DHT22;32278;51.810;4.712;2023-03-01T00:58:40;1.50;99.90
46552;DHT22;32278;51.810;4.712;2023-03-01T01:01:10;1.40;99.90
46552;DHT22;32278;51.810;4.712;2023-03-01T01:06:21;1.40;99.90
46552;DHT22;32278;51.810;4.712;2023-03-01T01:08:48;1.40;99.90
46552;DHT22;32278;51.810;4.712;2023-03-01T01:11:16;1.30;99.90
46552;DHT22;32278;51.810;4.712;2023-03-01T01:13:43;1.30;99.90
46552;DHT22;32278;51.810;4.712;2023-03-01T01:16:09;1.30;99.90
46552;DHT22;32278;51.810;4.712;2023-03-01T01:18:35;1.30;99.90
46552;DHT22;32278;51.810;4.712;2023-03-01T01:21:06;1.30;99.90
46552;DHT22;32278;51.810;4.712;2023-03-01T01:23:32;1.30;99.90
46552;DHT22;32278;51.810;4.712;2023-03-01T01:25:57;1.20;99.90
46552;DHT22;32278;51.810;4.712;2023-03-01T01:28:28;1.20;99.90
46552;DHT22;32278;51.810;4.712;2023-03-01T01:30:54;1.20;99.90
46552;DHT22;32278;51.810;4.712;2023-03-01T01:33:19;1.20;99.90
46552;DHT22;32278;51.810;4.712;2023-03-01T01:35:45;1.20;99.90
46552;DHT22;32278;51.810;4.712;2023-03-01T01:38:11;1.20;99.90
46552;DHT22;32278;51.810;4.712;2023-03-01T01:40:45;1.30;99.90
46552;DHT22;32278;51.810;4.712;2023-03-01T01:45:49;1.20;99.90
46552;DHT22;32278;51.810;4.712;2023-03-01T01:48:20;1.20;99.90
46552;DHT22;32278;51.810;4.712;2023-03-01T01:50:54;1.20;99.90
46552;DHT22;32278;51.810;4.712;2023-03-01T01:53:20;1.20;99.90
46552;DHT22;32278;51.810;4.712;2023-03-01T01:55:51;1.20;99.90
46552;DHT22;32278;51.810;4.712;2023-03-01T01:58:19;1.20;99.90
46552;DHT22;32278;51.810;4.712;2023-03-01T02:00:45;1.20;99.90
46552;DHT22;32278;51.810;4.712;2023-03-01T02:03:13;1.20;99.90
46552;DHT22;32278;51.810;4.712;2023-03-01T02:08:25;1.10;99.90
46552;DHT22;32278;51.810;4.712;2023-03-01T02:10:54;1.10;99.90
46552;DHT22;32278;51.810;4.712;2023-03-01T02:13:21;1.10;99.90
46552;DHT22;32278;51.810;4.712;2023-03-01T02:15:47;1.00;99.90
46552;DHT22;32278;51.810;4.712;2023-03-01T02:18:16;1.00;99.90
46552;DHT22;32278;51.810;4.712;2023-03-01T02:21:08;1.00;99.90
46552;DHT22;32278;51.810;4.712;2023-03-01T02:23:36;1.10;99.90
46552;DHT22;32278;51.810;4.712;2023-03-01T02:26:09;1.10;99.90
46552;DHT22;32278;51.810;4.712;2023-03-01T02:28:40;1.10;99.90
46552;DHT22;32278;51.810;4.712;2023-03-01T02:31:09;1.20;99.90
46552;DHT22;32278;51.810;4.712;2023-03-01T02:33:54;1.20;99.90
46552;DHT22;32278;51.810;4.712;2023-03-01T02:36:26;1.20;99.90
46552;DHT22;32278;51.810;4.712;2023-03-01T02:38:57;1.20;99.90
46552;DHT22;32278;51.810;4.712;2023-03-01T02:41:25;1.20;99.90
46552;DHT22;32278;51.810;4.712;2023-03-01T02:43:51;1.20;99.90
46552;DHT22;32278;51.810;4.712;2023-03-01T02:46:23;1.20;99.90
46552;DHT22;32278;51.810;4.712;2023-03-01T02:48:53;1.20;99.90
46552;DHT22;32278;51.810;4.712;2023-03-01T02:54:12;1.20;99.90
46552;DHT22;32278;51.810;4.712;2023-03-01T02:56:41;1.30;99.90
46552;DHT22;32278;51.810;4.712;2023-03-01T02:59:08;1.30;99.90
46552;DHT22;32278;51.810;4.712;2023-03-01T03:01:35;1.30;99.90
46552;DHT22;32278;51.810;4.712;2023-03-01T03:04:08;1.30;99.90
46552;DHT22;32278;51.810;4.712;2023-03-01T03:06:35;1.30;99.90
46552;DHT22;32278;51.810;4.712;2023-03-01T03:09:01;1.30;99.90
46552;DHT22;32278;51.810;4.712;2023-03-01T03:11:27;1.20;99.90
46552;DHT22;32278;51.810;4.712;2023-03-01T03:13:52;1.30;99.90
46552;DHT22;32278;51.810;4.712;2023-03-01T03:16:19;1.20;99.90
46552;DHT22;32278;51.810;4.712;2023-03-01T03:18:44;1.30;99.90
46552;DHT22;32278;51.810;4.712;2023-03-01T03:21:12;1.30;99.90
46552;DHT22;32278;51.810;4.712;2023-03-01T03:23:38;1.20;99.90
46552;DHT22;32278;51.810;4.712;2023-03-01T03:26:05;1.20;99.90
46552;DHT22;32278;51.810;4.712;2023-03-01T03:28:32;1.20;99.90
46552;DHT22;32278;51.810;4.712;2023-03-01T03:30:57;1.10;99.90
46552;DHT22;32278;51.810;4.712;2023-03-01T03:33:24;1.10;99.90
46552;DHT22;32278;51.810;4.712;2023-03-01T03:35:50;1.10;99.90
46552;DHT22;32278;51.810;4.712;2023-03-01T03:38:18;1.00;99.90
46552;DHT22;32278;51.810;4.712;2023-03-01T03:40:46;1.00;99.90
46552;DHT22;32278;51.810;4.712;2023-03-01T03:45:40;1.00;99.90
46552;DHT22;32278;51.810;4.712;2023-03-01T03:48:08;1.00;99.90
46552;DHT22;32278;51.810;4.712;2023-03-01T03:50:38;0.90;99.90
46552;DHT22;32278;51.810;4.712;2023-03-01T03:53:08;0.90;99.90
46552;DHT22;32278;51.810;4.712;2023-03-01T03:55:34;0.90;99.90
46552;DHT22;32278;51.810;4.712;2023-03-01T03:58:02;0.90;99.90
46552;DHT22;32278;51.810;4.712;2023-03-01T04:00:36;0.90;99.90
46552;DHT22;32278;51.810;4.712;2023-03-01T04:03:02;0.80;99.90
46552;DHT22;32278;51.810;4.712;2023-03-01T04:05:27;0.80;99.90
46552;DHT22;32278;51.810;4.712;2023-03-01T04:07:53;0.70;99.90
46552;DHT22;32278;51.810;4.712;2023-03-01T04:10:31;0.70;99.90
46552;DHT22;32278;51.810;4.712;2023-03-01T04:12:57;0.70;99.90
46552;DHT22;32278;51.810;4.712;2023-03-01T04:15:24;0.70;99.90
46552;DHT22;32278;51.810;4.712;2023-03-01T04:17:52;0.70;99.90
46552;DHT22;32278;51.810;4.712;2023-03-01T04:20:20;0.70;99.90
46552;DHT22;32278;51.810;4.712;2023-03-01T04:25:33;0.70;99.90
46552;DHT22;32278;51.810;4.712;2023-03-01T04:27:59;0.60;99.90
46552;DHT22;32278;51.810;4.712;2023-03-01T04:30:24;0.70;99.90
46552;DHT22;32278;51.810;4.712;2023-03-01T04:32:50;0.70;99.90
46552;DHT22;32278;51.810;4.712;2023-03-01T04:35:16;0.60;99.90
46552;DHT22;32278;51.810;4.712;2023-03-01T04:37:41;0.60;99.90
46552;DHT22;32278;51.810;4.712;2023-03-01T04:40:07;0.60;99.90
46552;DHT22;32278;51.810;4.712;2023-03-01T04:42:40;0.60;99.90
46552;DHT22;32278;51.810;4.712;2023-03-01T04:45:07;0.60;99.90
46552;DHT22;32278;51.810;4.712;2023-03-01T04:47:39;0.70;99.90
46552;DHT22;32278;51.810;4.712;2023-03-01T04:50:05;0.60;99.90
46552;DHT22;32278;51.810;4.712;2023-03-01T04:52:30;0.60;99.90
46552;DHT22;32278;51.810;4.712;2023-03-01T04:54:57;0.60;99.90
46552;DHT22;32278;51.810;4.712;2023-03-01T04:57:22;0.50;99.90
46552;DHT22;32278;51.810;4.712;2023-03-01T04:59:48;0.40;99.90
46552;DHT22;32278;51.810;4.712;2023-03-01T05:02:13;0.40;99.90
46552;DHT22;32278;51.810;4.712;2023-03-01T05:04:39;0.30;99.90
46552;DHT22;32278;51.810;4.712;2023-03-01T05:07:04;0.30;99.90
46552;DHT22;32278;51.810;4.712;2023-03-01T05:09:30;0.30;99.90
46552;DHT22;32278;51.810;4.712;2023-03-01T05:11:56;0.20;99.90
46552;DHT22;32278;51.810;4.712;2023-03-01T05:14:21;0.10;99.90
46552;DHT22;32278;51.810;4.712;2023-03-01T05:16:48;0.10;99.90
46552;DHT22;32278;51.810;4.712;2023-03-01T05:19:13;0.10;99.90
46552;DHT22;32278;51.810;4.712;2023-03-01T05:21:41;0.00;99.90
46552;DHT22;32278;51.810;4.712;2023-03-01T05:24:26;0.10;99.90
46552;DHT22;32278;51.810;4.712;2023-03-01T05:26:52;0.10;99.90
46552;DHT22;32278;51.810;4.712;2023-03-01T05:29:19;0.10;99.90
46552;DHT22;32278;51.810;4.712;2023-03-01T05:31:51;0.10;99.90
46552;DHT22;32278;51.810;4.712;2023-03-01T05:34:17;0.20;99.90
46552;DHT22;32278;51.810;4.712;2023-03-01T05:36:43;0.20;99.90
46552;DHT22;32278;51.810;4.712;2023-03-01T05:39:08;0.20;99.90
46552;DHT22;32278;51.810;4.712;2023-03-01T05:41:34;0.10;99.90
46552;DHT22;32278;51.810;4.712;2023-03-01T05:43:59;0.20;99.90
46552;DHT22;32278;51.810;4.712;2023-03-01T05:46:25;0.20;99.90
46552;DHT22;32278;51.810;4.712;2023-03-01T05:48:50;0.10;99.90
46552;DHT22;32278;51.810;4.712;2023-03-01T05:51:16;0.10;99.90
46552;DHT22;32278;51.810;4.712;2023-03-01T05:53:42;0.10;99.90
46552;DHT22;32278;51.810;4.712;2023-03-01T05:56:08;0.20;99.90
46552;DHT22;32278;51.810;4.712;2023-03-01T05:58:33;0.20;99.90
46552;DHT22;32278;51.810;4.712;2023-03-01T06:00:59;0.20;99.90
46552;DHT22;32278;51.810;4.712;2023-03-01T06:03:25;0.10;99.90
46552;DHT22;32278;51.810;4.712;2023-03-01T06:05:56;0.10;99.90
46552;DHT22;32278;51.810;4.712;2023-03-01T06:08:21;0.00;99.90
46552;DHT22;32278;51.810;4.712;2023-03-01T06:10:47;0.00;99.90
46552;DHT22;32278;51.810;4.712;2023-03-01T06:13:13;0.00;99.90
46552;DHT22;32278;51.810;4.712;2023-03-01T06:15:38;0.00;99.90
46552;DHT22;32278;51.810;4.712;2023-03-01T06:18:04;0.00;99.90
46552;DHT22;32278;51.810;4.712;2023-03-01T06:20:29;0.00;99.90
46552;DHT22;32278;51.810;4.712;2023-03-01T06:22:56;0.00;99.90
46552;DHT22;32278;51.810;4.712;2023-03-01T06:25:24;0.10;99.90
46552;DHT22;32278;51.810;4.712;2023-03-01T06:27:50;0.10;99.90
46552;DHT22;32278;51.810;4.712;2023-03-01T06:30:19;0.10;99.90
46552;DHT22;32278;51.810;4.712;2023-03-01T06:32:45;0.10;99.90
46552;DHT22;32278;51.810;4.712;2023-03-01T06:35:12;0.20;99.90
46552;DHT22;32278;51.810;4.712;2023-03-01T06:37:38;0.20;99.90
46552;DHT22;32278;51.810;4.712;2023-03-01T06:40:04;0.20;99.90
46552;DHT22;32278;51.810;4.712;2023-03-01T06:42:37;0.20;99.90
46552;DHT22;32278;51.810;4.712;2023-03-01T06:45:04;0.10;99.90
46552;DHT22;32278;51.810;4.712;2023-03-01T06:47:30;0.10;99.90
46552;DHT22;32278;51.810;4.712;2023-03-01T06:49:56;0.10;99.90
46552;DHT22;32278;51.810;4.712;2023-03-01T06:52:22;0.10;99.90
46552;DHT22;32278;51.810;4.712;2023-03-01T06:54:47;0.10;99.90
46552;DHT22;32278;51.810;4.712;2023-03-01T06:57:13;0.10;99.90
46552;DHT22;32278;51.810;4.712;2023-03-01T06:59:39;0.10;99.90
46552;DHT22;32278;51.810;4.712;2023-03-01T07:02:10;0.00;99.90
46552;DHT22;32278;51.810;4.712;2023-03-01T07:04:35;0.10;99.90
46552;DHT22;32278;51.810;4.712;2023-03-01T07:07:01;0.10;99.90
46552;DHT22;32278;51.810;4.712;2023-03-01T07:09:26;0.10;99.90
46552;DHT22;32278;51.810;4.712;2023-03-01T07:11:52;0.20;99.90
46552;DHT22;32278;51.810;4.712;2023-03-01T07:14:18;0.10;99.90
46552;DHT22;32278;51.810;4.712;2023-03-01T07:16:45;0.20;99.90
46552;DHT22;32278;51.810;4.712;2023-03-01T07:19:11;0.20;99.90
46552;DHT22;32278;51.810;4.712;2023-03-01T07:21:37;0.20;99.90
46552;DHT22;32278;51.810;4.712;2023-03-01T07:24:06;0.30;99.90
46552;DHT22;32278;51.810;4.712;2023-03-01T07:26:31;0.30;99.90
46552;DHT22;32278;51.810;4.712;2023-03-01T07:28:59;0.30;99.90
46552;DHT22;32278;51.810;4.712;2023-03-01T07:31:25;0.30;99.90
46552;DHT22;32278;51.810;4.712;2023-03-01T07:33:54;0.30;99.90
46552;DHT22;32278;51.810;4.712;2023-03-01T07:36:20;0.40;99.90
46552;DHT22;32278;51.810;4.712;2023-03-01T07:38:45;0.40;99.90
46552;DHT22;32278;51.810;4.712;2023-03-01T07:41:11;0.40;99.90
46552;DHT22;32278;51.810;4.712;2023-03-01T07:43:36;0.40;99.90
46552;DHT22;32278;51.810;4.712;2023-03-01T07:46:03;0.50;99.90
46552;DHT22;32278;51.810;4.712;2023-03-01T07:48:29;0.60;99.90
46552;DHT22;32278;51.810;4.712;2023-03-01T07:50:58;0.60;99.90
46552;DHT22;32278;51.810;4.712;2023-03-01T07:53:25;0.60;99.90
46552;DHT22;32278;51.810;4.712;2023-03-01T07:56:06;0.60;99.90
46552;DHT22;32278;51.810;4.712;2023-03-01T07:58:34;0.70;99.90
46552;DHT22;32278;51.810;4.712;2023-03-01T08:01:06;0.70;99.90
46552;DHT22;32278;51.810;4.712;2023-03-01T08:03:32;0.80;99.90
46552;DHT22;32278;51.810;4.712;2023-03-01T08:06:06;0.80;99.90
46552;DHT22;32278;51.810;4.712;2023-03-01T08:08:33;0.80;99.90
46552;DHT22;32278;51.810;4.712;2023-03-01T08:11:00;0.90;99.90
46552;DHT22;32278;51.810;4.712;2023-03-01T08:13:27;1.00;99.90
46552;DHT22;32278;51.810;4.712;2023-03-01T08:15:53;1.00;99.90
46552;DHT22;32278;51.810;4.712;2023-03-01T08:18:20;1.10;99.90
46552;DHT22;32278;51.810;4.712;2023-03-01T08:20:47;1.20;99.90
46552;DHT22;32278;51.810;4.712;2023-03-01T08:23:13;1.30;99.90
46552;DHT22;32278;51.810;4.712;2023-03-01T08:25:39;1.40;99.90
46552;DHT22;32278;51.810;4.712;2023-03-01T08:28:05;1.50;99.90
46552;DHT22;32278;51.810;4.712;2023-03-01T08:30:31;1.60;99.90
46552;DHT22;32278;51.810;4.712;2023-03-01T08:32:57;1.70;99.90
46552;DHT22;32278;51.810;4.712;2023-03-01T08:35:22;2.00;99.90
46552;DHT22;32278;51.810;4.712;2023-03-01T08:37:48;2.30;99.90
46552;DHT22;32278;51.810;4.712;2023-03-01T08:40:14;2.40;99.90
46552;DHT22;32278;51.810;4.712;2023-03-01T08:42:42;2.50;99.90
46552;DHT22;32278;51.810;4.712;2023-03-01T08:45:09;2.50;99.90
46552;DHT22;32278;51.810;4.712;2023-03-01T08:47:35;2.80;99.90
46552;DHT22;32278;51.810;4.712;2023-03-01T08:50:00;2.90;99.90
46552;DHT22;32278;51.810;4.712;2023-03-01T08:52:26;2.90;99.90
46552;DHT22;32278;51.810;4.712;2023-03-01T08:54:52;3.10;99.90
46552;DHT22;32278;51.810;4.712;2023-03-01T08:57:17;3.20;99.90
46552;DHT22;32278;51.810;4.712;2023-03-01T08:59:43;3.40;99.90
46552;DHT22;32278;51.810;4.712;2023-03-01T09:02:13;3.40;99.90
46552;DHT22;32278;51.810;4.712;2023-03-01T09:04:39;3.50;99.90
46552;DHT22;32278;51.810;4.712;2023-03-01T09:07:04;3.50;99.90
46552;DHT22;32278;51.810;4.712;2023-03-01T09:09:30;3.60;99.90
46552;DHT22;32278;51.810;4.712;2023-03-01T09:11:56;3.80;99.90
46552;DHT22;32278;51.810;4.712;2023-03-01T09:14:21;3.80;99.90
46552;DHT22;32278;51.810;4.712;2023-03-01T09:16:47;4.10;99.90
46552;DHT22;32278;51.810;4.712;2023-03-01T09:19:13;4.10;99.90
46552;DHT22;32278;51.810;4.712;2023-03-01T09:21:38;4.40;99.90
46552;DHT22;32278;51.810;4.712;2023-03-01T09:24:04;4.30;99.90
46552;DHT22;32278;51.810;4.712;2023-03-01T09:26:30;4.20;99.90
46552;DHT22;32278;51.810;4.712;2023-03-01T09:28:56;4.00;99.90
46552;DHT22;32278;51.810;4.712;2023-03-01T09:31:23;4.10;99.90
46552;DHT22;32278;51.810;4.712;2023-03-01T09:33:51;4.40;99.90
46552;DHT22;32278;51.810;4.712;2023-03-01T09:36:19;4.60;99.90
46552;DHT22;32278;51.810;4.712;2023-03-01T09:38:46;4.60;99.90
46552;DHT22;32278;51.810;4.712;2023-03-01T09:46:41;4.30;99.90
46552;DHT22;32278;51.810;4.712;2023-03-01T09:49:20;4.50;99.90
46552;DHT22;32278;51.810;4.712;2023-03-01T09:51:59;4.80;99.90
46552;DHT22;32278;51.810;4.712;2023-03-01T09:54:25;4.50;99.90
46552;DHT22;32278;51.810;4.712;2023-03-01T09:59:49;4.70;99.90
46552;DHT22;32278;51.810;4.712;2023-03-01T10:02:32;4.90;99.90
46552;DHT22;32278;51.810;4.712;2023-03-01T10:05:35;4.90;87.30
46552;DHT22;32278;51.810;4.712;2023-03-01T10:11:24;5.20;7.70
46552;DHT22;32278;51.810;4.712;2023-03-01T10:14:03;5.00;47.40
46552;DHT22;32278;51.810;4.712;2023-03-01T10:16:38;5.20;73.70
46552;DHT22;32278;51.810;4.712;2023-03-01T10:19:09;5.50;11.30
46552;DHT22;32278;51.810;4.712;2023-03-01T10:21:42;5.10;1.00
46552;DHT22;32278;51.810;4.712;2023-03-01T10:24:18;5.00;1.00
46552;DHT22;32278;51.810;4.712;2023-03-01T10:26:55;5.10;1.00
46552;DHT22;32278;51.810;4.712;2023-03-01T10:32:11;5.30;1.00
46552;DHT22;32278;51.810;4.712;2023-03-01T10:34:36;5.30;1.00
46552;DHT22;32278;51.810;4.712;2023-03-01T10:37:12;5.20;1.00
46552;DHT22;32278;51.810;4.712;2023-03-01T10:39:55;5.00;1.00
46552;DHT22;32278;51.810;4.712;2023-03-01T10:42:30;4.90;1.00
46552;DHT22;32278;51.810;4.712;2023-03-01T10:44:56;5.10;1.00
46552;DHT22;32278;51.810;4.712;2023-03-01T10:47:27;5.20;1.00
46552;DHT22;32278;51.810;4.712;2023-03-01T10:52:21;5.30;1.00
46552;DHT22;32278;51.810;4.712;2023-03-01T10:57:39;5.40;1.00
46552;DHT22;32278;51.810;4.712;2023-03-01T11:00:25;5.50;1.00
46552;DHT22;32278;51.810;4.712;2023-03-01T11:03:10;5.30;1.00
46552;DHT22;32278;51.810;4.712;2023-03-01T11:05:37;5.30;1.00
46552;DHT22;32278;51.810;4.712;2023-03-01T11:08:15;5.50;1.00
46552;DHT22;32278;51.810;4.712;2023-03-01T11:13:35;5.80;1.00
46552;DHT22;32278;51.810;4.712;2023-03-01T11:16:03;6.00;99.90
46552;DHT22;32278;51.810;4.712;2023-03-01T11:18:30;6.00;99.90
46552;DHT22;32278;51.810;4.712;2023-03-01T11:20:58;6.00;99.90
46552;DHT22;32278;51.810;4.712;2023-03-01T11:23:25;6.30;99.90
46552;DHT22;32278;51.810;4.712;2023-03-01T11:26:05;6.50;99.90
46552;DHT22;32278;51.810;4.712;2023-03-01T11:28:32;6.80;99.90
46552;DHT22;32278;51.810;4.712;2023-03-01T11:31:09;6.80;99.90
46552;DHT22;32278;51.810;4.712;2023-03-01T11:33:49;7.20;99.90
46552;DHT22;32278;51.810;4.712;2023-03-01T11:39:40;7.10;99.90
46552;DHT22;32278;51.810;4.712;2023-03-01T11:45:10;6.70;99.90
46552;DHT22;32278;51.810;4.712;2023-03-01T11:48:10;6.80;99.90
46552;DHT22;32278;51.810;4.712;2023-03-01T11:50:49;6.80;99.90
46552;DHT22;32278;51.810;4.712;2023-03-01T11:53:48;6.80;99.90
46552;DHT22;32278;51.810;4.712;2023-03-01T11:56:33;6.50;99.90
46552;DHT22;32278;51.810;4.712;2023-03-01T12:04:36;7.20;99.90
46552;DHT22;32278;51.810;4.712;2023-03-01T12:07:36;7.50;99.90
46552;DHT22;32278;51.810;4.712;2023-03-01T12:13:11;7.50;99.90
46552;DHT22;32278;51.810;4.712;2023-03-01T12:15:49;7.70;99.90
46552;DHT22;32278;51.810;4.712;2023-03-01T12:21:35;7.50;99.90
46552;DHT22;32278;51.810;4.712;2023-03-01T12:24:41;8.10;99.90
46552;DHT22;32278;51.810;4.712;2023-03-01T12:46:58;8.30;90.70
46552;DHT22;32278;51.810;4.712;2023-03-01T12:49:35;8.20;36.60
46552;DHT22;32278;51.810;4.712;2023-03-01T12:52:11;7.90;53.00
46552;DHT22;32278;51.810;4.712;2023-03-01T12:54:39;7.90;78.60
46552;DHT22;32278;51.810;4.712;2023-03-01T12:57:28;8.20;92.90
46552;DHT22;32278;51.810;4.712;2023-03-01T13:06:01;8.20;42.00
46552;DHT22;32278;51.810;4.712;2023-03-01T13:08:41;8.10;52.50
46552;DHT22;32278;51.810;4.712;2023-03-01T13:11:20;8.40;73.60
46552;DHT22;32278;51.810;4.712;2023-03-01T13:13:46;8.20;34.00
46552;DHT22;32278;51.810;4.712;2023-03-01T13:16:39;8.10;14.30
46552;DHT22;32278;51.810;4.712;2023-03-01T13:21:45;8.00;1.00
46552;DHT22;32278;51.810;4.712;2023-03-01T13:24:35;8.10;9.40
46552;DHT22;32278;51.810;4.712;2023-03-01T13:27:26;8.20;1.00
46552;DHT22;32278;51.810;4.712;2023-03-01T13:29:59;7.90;1.00
46552;DHT22;32278;51.810;4.712;2023-03-01T13:32:33;8.20;1.00
46552;DHT22;32278;51.810;4.712;2023-03-01T13:37:30;8.30;1.00
46552;DHT22;32278;51.810;4.712;2023-03-01T13:39:58;7.80;1.00
46552;DHT22;32278;51.810;4.712;2023-03-01T13:42:36;7.30;1.00
46552;DHT22;32278;51.810;4.712;2023-03-01T13:45:45;7.20;1.00
46552;DHT22;32278;51.810;4.712;2023-03-01T13:47:58;7.10;1.00
46552;DHT22;32278;51.810;4.712;2023-03-01T13:50:29;7.00;1.00
46552;DHT22;32278;51.810;4.712;2023-03-01T13:53:01;7.20;1.00
46552;DHT22;32278;51.810;4.712;2023-03-01T13:55:40;7.00;1.00
46552;DHT22;32278;51.810;4.712;2023-03-01T13:58:30;6.90;1.00
46552;DHT22;32278;51.810;4.712;2023-03-01T14:01:02;7.00;1.00
46552;DHT22;32278;51.810;4.712;2023-03-01T14:03:30;7.10;1.00
46552;DHT22;32278;51.810;4.712;2023-03-01T14:06:13;7.40;1.00
46552;DHT22;32278;51.810;4.712;2023-03-01T14:08:41;7.30;1.00
46552;DHT22;32278;51.810;4.712;2023-03-01T14:14:31;7.00;99.90
46552;DHT22;32278;51.810;4.712;2023-03-01T14:17:17;6.90;99.90
46552;DHT22;32278;51.810;4.712;2023-03-01T14:19:46;7.00;99.90
46552;DHT22;32278;51.810;4.712;2023-03-01T14:24:58;7.00;99.90
46552;DHT22;32278;51.810;4.712;2023-03-01T14:27:35;7.00;99.90
46552;DHT22;32278;51.810;4.712;2023-03-01T14:30:13;7.00;99.90
46552;DHT22;32278;51.810;4.712;2023-03-01T14:32:40;6.90;99.90
46552;DHT22;32278;51.810;4.712;2023-03-01T14:35:30;7.00;99.90
46552;DHT22;32278;51.810;4.712;2023-03-01T14:37:56;7.00;99.90
46552;DHT22;32278;51.810;4.712;2023-03-01T14:42:51;7.00;99.90
46552;DHT22;32278;51.810;4.712;2023-03-01T14:45:18;7.00;99.90
46552;DHT22;32278;51.810;4.712;2023-03-01T14:47:45;6.90;99.90
46552;DHT22;32278;51.810;4.712;2023-03-01T14:52:48;6.90;99.90
46552;DHT22;32278;51.810;4.712;2023-03-01T14:55:21;7.00;99.90
46552;DHT22;32278;51.810;4.712;2023-03-01T14:57:51;6.90;99.90
46552;DHT22;32278;51.810;4.712;2023-03-01T15:00:23;6.90;99.90
46552;DHT22;32278;51.810;4.712;2023-03-01T15:02:50;6.80;99.90
46552;DHT22;32278;51.810;4.712;2023-03-01T15:05:39;6.90;99.90
46552;DHT22;32278;51.810;4.712;2023-03-01T15:08:04;6.90;99.90
46552;DHT22;32278;51.810;4.712;2023-03-01T15:10:33;6.90;99.90
46552;DHT22;32278;51.810;4.712;2023-03-01T15:13:14;7.00;99.90
46552;DHT22;32278;51.810;4.712;2023-03-01T15:15:47;7.00;99.90
46552;DHT22;32278;51.810;4.712;2023-03-01T15:20:44;7.00;99.90
46552;DHT22;32278;51.810;4.712;2023-03-01T15:23:28;7.00;99.90
46552;DHT22;32278;51.810;4.712;2023-03-01T15:25:55;7.00;99.90
46552;DHT22;32278;51.810;4.712;2023-03-01T15:28:24;7.00;99.90
46552;DHT22;32278;51.810;4.712;2023-03-01T15:31:02;6.90;99.90
46552;DHT22;32278;51.810;4.712;2023-03-01T15:35:57;7.00;99.90
46552;DHT22;32278;51.810;4.712;2023-03-01T15:40:52;6.90;99.90
46552;DHT22;32278;51.810;4.712;2023-03-01T15:43:41;6.90;99.90
46552;DHT22;32278;51.810;4.712;2023-03-01T15:46:39;7.00;99.90
46552;DHT22;32278;51.810;4.712;2023-03-01T15:49:34;7.00;99.90
46552;DHT22;32278;51.810;4.712;2023-03-01T15:52:01;7.00;99.90
46552;DHT22;32278;51.810;4.712;2023-03-01T15:54:27;7.00;99.90
46552;DHT22;32278;51.810;4.712;2023-03-01T15:56:53;7.10;99.90
46552;DHT22;32278;51.810;4.712;2023-03-01T15:59:19;7.10;99.90
46552;DHT22;32278;51.810;4.712;2023-03-01T16:01:45;7.00;99.90
46552;DHT22;32278;51.810;4.712;2023-03-01T16:04:12;7.10;99.90
46552;DHT22;32278;51.810;4.712;2023-03-01T16:06:41;7.00;99.90
46552;DHT22;32278;51.810;4.712;2023-03-01T16:09:07;7.00;99.90
46552;DHT22;32278;51.810;4.712;2023-03-01T16:11:32;6.90;99.90
46552;DHT22;32278;51.810;4.712;2023-03-01T16:14:02;7.00;99.90
46552;DHT22;32278;51.810;4.712;2023-03-01T16:16:27;7.00;99.90
46552;DHT22;32278;51.810;4.712;2023-03-01T16:18:53;7.00;99.90
46552;DHT22;32278;51.810;4.712;2023-03-01T16:21:24;6.90;99.90
46552;DHT22;32278;51.810;4.712;2023-03-01T16:23:50;6.90;99.90
46552;DHT22;32278;51.810;4.712;2023-03-01T16:26:17;6.90;99.90
46552;DHT22;32278;51.810;4.712;2023-03-01T16:28:44;6.90;99.90
46552;DHT22;32278;51.810;4.712;2023-03-01T16:31:09;6.90;99.90
46552;DHT22;32278;51.810;4.712;2023-03-01T16:33:36;6.90;99.90
46552;DHT22;32278;51.810;4.712;2023-03-01T16:36:12;6.80;99.90
46552;DHT22;32278;51.810;4.712;2023-03-01T16:38:38;6.70;99.90
46552;DHT22;32278;51.810;4.712;2023-03-01T16:41:04;6.70;99.90
46552;DHT22;32278;51.810;4.712;2023-03-01T16:43:30;6.70;96.70
46552;DHT22;32278;51.810;4.712;2023-03-01T16:45:56;6.80;92.90
46552;DHT22;32278;51.810;4.712;2023-03-01T16:48:24;6.70;69.10
46552;DHT22;32278;51.810;4.712;2023-03-01T16:50:58;6.60;31.90
46552;DHT22;32278;51.810;4.712;2023-03-01T16:53:24;6.60;28.10
46552;DHT22;32278;51.810;4.712;2023-03-01T16:55:57;6.50;42.00
46552;DHT22;32278;51.810;4.712;2023-03-01T16:58:23;6.60;34.50
46552;DHT22;32278;51.810;4.712;2023-03-01T17:00:53;6.50;50.20
46552;DHT22;32278;51.810;4.712;2023-03-01T17:03:23;6.30;64.20
46552;DHT22;32278;51.810;4.712;2023-03-01T17:05:49;6.40;53.70
46552;DHT22;32278;51.810;4.712;2023-03-01T17:08:15;6.30;52.10
46552;DHT22;32278;51.810;4.712;2023-03-01T17:10:41;6.30;52.40
46552;DHT22;32278;51.810;4.712;2023-03-01T17:13:08;6.30;51.60
46552;DHT22;32278;51.810;4.712;2023-03-01T17:15:35;6.20;49.00
46552;DHT22;32278;51.810;4.712;2023-03-01T17:18:02;6.20;50.40
46552;DHT22;32278;51.810;4.712;2023-03-01T17:20:28;6.10;63.90
46552;DHT22;32278;51.810;4.712;2023-03-01T17:22:54;6.10;70.50
46552;DHT22;32278;51.810;4.712;2023-03-01T17:25:19;6.10;66.10
46552;DHT22;32278;51.810;4.712;2023-03-01T17:27:45;6.00;80.60
46552;DHT22;32278;51.810;4.712;2023-03-01T17:30:12;6.00;90.00
46552;DHT22;32278;51.810;4.712;2023-03-01T17:32:38;5.90;99.90
46552;DHT22;32278;51.810;4.712;2023-03-01T17:35:04;5.90;99.90
46552;DHT22;32278;51.810;4.712;2023-03-01T17:37:29;5.80;99.90
46552;DHT22;32278;51.810;4.712;2023-03-01T17:39:55;5.80;99.90
46552;DHT22;32278;51.810;4.712;2023-03-01T17:42:20;5.80;99.90
46552;DHT22;32278;51.810;4.712;2023-03-01T17:44:46;5.70;99.90
46552;DHT22;32278;51.810;4.712;2023-03-01T17:47:12;5.60;99.90
46552;DHT22;32278;51.810;4.712;2023-03-01T17:49:37;5.60;99.90